Time;durP1;ratioP1;P1;durP2;ratioP2;P2;SDS_P1;SDS_P2;PMS_P1;PMS_P2;Temp;Humidity;BMP_temperature;BMP_pressure;BME280_temperature;BME280_humidity;BME280_pressure;Samples;Min_cycle;Max_cycle;Signal;HPM_P1;HPM_P2
2022/06/11 00:01:29;;;;;;;6.40;2.30;;;19.60;99.90;;;;;;4972840;28;20195;-81
2022/06/11 00:04:02;;;;;;;6.50;2.23;;;19.60;99.90;;;;;;4973094;28;20679;-81
2022/06/11 00:06:30;;;;;;;7.40;2.47;;;19.60;99.90;;;;;;4973059;28;20307;-81
2022/06/11 00:08:56;;;;;;;7.07;2.37;;;19.60;99.90;;;;;;4973018;28;20775;-81
2022/06/11 00:11:26;;;;;;;3.33;2.27;;;19.60;99.90;;;;;;4973426;28;20211;-80
2022/06/11 00:13:52;;;;;;;7.90;2.73;;;19.50;99.90;;;;;;4973385;28;20536;-81
2022/06/11 00:16:20;;;;;;;9.17;2.50;;;19.50;99.90;;;;;;4973135;28;20231;-80
2022/06/11 00:18:47;;;;;;;6.13;2.50;;;19.50;99.90;;;;;;4974565;28;20188;-81
2022/06/11 00:21:14;;;;;;;6.33;2.40;;;19.50;99.90;;;;;;4973361;28;20271;-81
2022/06/11 00:23:42;;;;;;;9.07;2.50;;;19.50;99.90;;;;;;4972932;28;20235;-80
2022/06/11 00:26:09;;;;;;;7.47;3.43;;;19.40;99.90;;;;;;4972430;28;20271;-81
2022/06/11 00:28:35;;;;;;;6.60;2.80;;;19.40;99.90;;;;;;4972962;28;20652;-81
2022/06/11 00:31:02;;;;;;;8.40;2.60;;;19.40;99.90;;;;;;4972343;28;20203;-81
2022/06/11 00:33:28;;;;;;;8.93;2.77;;;19.40;99.90;;;;;;4973771;28;20179;-81
2022/06/11 00:35:53;;;;;;;12.07;3.63;;;19.40;99.90;;;;;;4978311;28;20172;-81
2022/06/11 00:38:19;;;;;;;8.27;2.60;;;19.30;99.90;;;;;;4979084;28;20188;-80
2022/06/11 00:40:48;;;;;;;8.93;2.80;;;19.30;99.90;;;;;;4978353;28;20176;-80
2022/06/11 00:43:17;;;;;;;8.47;2.90;;;19.30;99.90;;;;;;4978088;28;20172;-80
2022/06/11 00:46:18;;;;;;;6.37;2.50;;;19.30;99.90;;;;;;4978850;28;20548;-80
2022/06/11 00:48:44;;;;;;;3.77;2.60;;;19.40;99.90;;;;;;4980199;28;20204;-80
2022/06/11 00:51:20;;;;;;;8.73;3.13;;;19.40;99.90;;;;;;4979043;28;20252;-80
2022/06/11 00:53:56;;;;;;;5.57;2.60;;;19.30;99.90;;;;;;4979788;28;20231;-80
2022/06/11 00:56:23;;;;;;;5.03;2.43;;;19.30;99.90;;;;;;4977885;28;20180;-80
2022/06/11 00:58:55;;;;;;;7.17;2.73;;;19.20;99.90;;;;;;4978492;28;20200;-80
2022/06/11 01:01:22;;;;;;;7.77;2.80;;;19.30;99.90;;;;;;4978020;28;20266;-81
2022/06/11 01:03:50;;;;;;;3.83;2.40;;;19.30;99.90;;;;;;4978137;28;20176;-80
2022/06/11 01:06:42;;;;;;;6.10;2.77;;;19.20;99.90;;;;;;4978762;28;20186;-80
2022/06/11 01:09:20;;;;;;;4.40;2.83;;;19.20;99.90;;;;;;4978293;28;20296;-80
2022/06/11 01:12:05;;;;;;;4.47;2.73;;;19.10;99.90;;;;;;4978921;28;20310;-80
2022/06/11 01:14:36;;;;;;;6.33;3.03;;;19.10;99.90;;;;;;4978917;28;20183;-81
2022/06/11 01:17:33;;;;;;;8.50;3.20;;;18.90;99.90;;;;;;4979441;28;20195;-80
2022/06/11 01:21:05;;;;;;;8.07;3.23;;;18.90;99.90;;;;;;4978883;28;20617;-80
2022/06/11 01:23:33;;;;;;;11.20;3.70;;;18.80;99.90;;;;;;4939551;29;20196;-81
2022/06/11 01:26:32;;;;;;;9.17;3.63;;;18.70;99.90;;;;;;4979281;28;20180;-81
2022/06/11 01:29:07;;;;;;;9.77;3.60;;;18.70;99.90;;;;;;4979040;28;20186;-81
2022/06/11 01:32:01;;;;;;;8.60;3.13;;;18.70;99.90;;;;;;4978601;28;20249;-81
2022/06/11 01:34:48;;;;;;;9.07;3.57;;;18.60;99.90;;;;;;4976575;28;20180;-81
2022/06/11 01:37:20;;;;;;;6.17;3.20;;;18.60;99.90;;;;;;4977141;28;20179;-81
2022/06/11 01:39:58;;;;;;;8.57;3.33;;;18.40;99.90;;;;;;4976853;28;20180;-81
2022/06/11 01:42:46;;;;;;;7.80;3.50;;;18.40;99.90;;;;;;4976615;28;20203;-81
2022/06/11 01:45:19;;;;;;;9.90;3.43;;;18.50;99.90;;;;;;4976058;28;20662;-81
2022/06/11 01:47:46;;;;;;;14.17;3.90;;;18.30;99.90;;;;;;4975901;28;20239;-81
2022/06/11 01:50:16;;;;;;;9.03;3.23;;;18.40;99.90;;;;;;4976586;28;20555;-81
2022/06/11 01:53:07;;;;;;;11.17;3.50;;;18.40;99.90;;;;;;4976140;28;20279;-81
2022/06/11 01:55:47;;;;;;;11.17;3.40;;;18.40;99.90;;;;;;4976617;28;20629;-81
2022/06/11 01:58:35;;;;;;;8.27;3.30;;;18.40;99.90;;;;;;4976570;28;20207;-81
2022/06/11 02:01:13;;;;;;;10.00;3.50;;;18.30;99.90;;;;;;4976043;28;20191;-80
2022/06/11 02:04:00;;;;;;;6.47;3.30;;;18.40;99.90;;;;;;4976218;28;20234;-81
2022/06/11 02:06:54;;;;;;;7.27;3.50;;;18.30;99.90;;;;;;4977781;28;20180;-81
2022/06/11 02:10:00;;;;;;;5.67;3.20;;;18.50;99.90;;;;;;4977293;28;20188;-81
2022/06/11 02:12:42;;;;;;;5.67;3.20;;;18.50;99.90;;;;;;4967486;28;20227;-80
2022/06/11 02:15:23;;;;;;;11.87;3.50;;;18.30;99.90;;;;;;4977065;28;20179;-80
2022/06/11 02:17:56;;;;;;;7.37;3.60;;;18.20;99.90;;;;;;4976803;28;20595;-81
2022/06/11 02:20:39;;;;;;;7.47;3.70;;;18.20;99.90;;;;;;4976521;28;20184;-81
2022/06/11 02:23:07;;;;;;;7.37;3.83;;;18.20;99.90;;;;;;4976205;28;20660;-80
2022/06/11 02:25:42;;;;;;;9.07;3.90;;;18.30;99.90;;;;;;4976950;28;20184;-80
2022/06/11 02:28:11;;;;;;;7.83;3.57;;;18.20;99.90;;;;;;4976655;28;20174;-80
2022/06/11 02:30:40;;;;;;;11.70;3.50;;;18.30;99.90;;;;;;4975747;28;20184;-80
2022/06/11 02:33:09;;;;;;;8.80;4.00;;;18.20;99.90;;;;;;4976497;28;20200;-81
2022/06/11 02:35:39;;;;;;;7.17;3.77;;;18.20;99.90;;;;;;4977841;28;20644;-81
2022/06/11 02:38:12;;;;;;;9.67;3.60;;;18.20;99.90;;;;;;4978239;28;20183;-80
2022/06/11 02:40:53;;;;;;;7.20;3.70;;;18.20;99.90;;;;;;4977366;28;20226;-81
2022/06/11 02:43:20;;;;;;;8.13;3.80;;;18.20;99.90;;;;;;4976934;28;20171;-81
2022/06/11 02:45:45;;;;;;;7.20;3.63;;;18.10;99.90;;;;;;4977680;28;20175;-80
2022/06/11 02:48:13;;;;;;;8.40;3.23;;;17.90;99.90;;;;;;4977236;28;20256;-80
2022/06/11 02:50:40;;;;;;;8.77;3.70;;;17.80;99.90;;;;;;4976681;28;20183;-81
2022/06/11 02:53:09;;;;;;;6.80;3.80;;;17.80;99.90;;;;;;4977594;28;20191;-80
2022/06/11 02:55:38;;;;;;;8.83;3.60;;;17.70;99.90;;;;;;4976783;28;20176;-81
2022/06/11 02:58:06;;;;;;;8.40;3.93;;;17.60;99.90;;;;;;4976566;28;20172;-80
2022/06/11 03:00:36;;;;;;;13.73;4.40;;;17.50;99.90;;;;;;4976907;28;20180;-81
2022/06/11 03:03:02;;;;;;;10.43;4.43;;;17.50;99.90;;;;;;4976248;28;20188;-80
2022/06/11 03:05:30;;;;;;;9.20;4.80;;;17.50;99.90;;;;;;4976450;28;20337;-81
2022/06/11 03:07:58;;;;;;;12.87;4.90;;;17.50;99.90;;;;;;4976423;28;20235;-80
2022/06/11 03:10:24;;;;;;;15.27;5.23;;;17.50;99.90;;;;;;4975669;28;20172;-80
2022/06/11 03:12:50;;;;;;;9.57;4.60;;;17.60;99.90;;;;;;4975620;28;20216;-81
2022/06/11 03:15:18;;;;;;;11.67;5.20;;;17.60;99.90;;;;;;4976535;28;20223;-80
2022/06/11 03:17:45;;;;;;;12.53;5.60;;;17.50;99.90;;;;;;4976133;28;20222;-81
2022/06/11 03:20:13;;;;;;;11.20;5.30;;;17.40;99.90;;;;;;4976818;28;20172;-80
2022/06/11 03:22:39;;;;;;;10.67;5.37;;;17.40;99.90;;;;;;4975600;28;20196;-81
2022/06/11 03:25:05;;;;;;;12.80;5.50;;;17.40;99.90;;;;;;4976620;28;20271;-81
2022/06/11 03:27:31;;;;;;;13.53;5.40;;;17.40;99.90;;;;;;4975670;28;20176;-81
2022/06/11 03:29:57;;;;;;;15.63;6.03;;;17.40;99.90;;;;;;4975544;28;20183;-80
2022/06/11 03:32:23;;;;;;;10.60;5.40;;;17.40;99.90;;;;;;4976563;28;20728;-82
2022/06/11 03:34:49;;;;;;;16.13;5.40;;;17.30;99.90;;;;;;4977991;28;20255;-81
2022/06/11 03:37:15;;;;;;;11.43;5.53;;;17.30;99.90;;;;;;4979248;28;20206;-81
2022/06/11 03:39:41;;;;;;;13.63;5.67;;;17.20;99.90;;;;;;4977980;28;20654;-82
2022/06/11 03:42:08;;;;;;;14.13;6.80;;;17.20;99.90;;;;;;4977822;28;20558;-81
2022/06/11 03:44:35;;;;;;;14.80;5.73;;;17.20;99.90;;;;;;4978460;28;20263;-81
2022/06/11 03:47:01;;;;;;;12.60;6.40;;;17.20;99.90;;;;;;4978169;28;20207;-81
2022/06/11 03:49:27;;;;;;;11.83;6.00;;;17.20;99.90;;;;;;4979900;28;20172;-81
2022/06/11 03:51:53;;;;;;;12.87;6.00;;;17.10;99.90;;;;;;4978361;28;20266;-81
2022/06/11 03:54:18;;;;;;;15.87;5.97;;;17.10;99.90;;;;;;4978463;28;20174;-81
2022/06/11 03:56:47;;;;;;;16.03;6.73;;;17.00;99.90;;;;;;4979395;28;20252;-81
2022/06/11 03:59:13;;;;;;;14.63;6.10;;;17.00;99.90;;;;;;4979499;28;20172;-81
2022/06/11 04:01:40;;;;;;;17.23;5.87;;;17.00;99.90;;;;;;4978493;28;20198;-81
2022/06/11 04:04:10;;;;;;;11.07;5.37;;;17.10;99.90;;;;;;4973868;28;20176;-81
2022/06/11 04:06:40;;;;;;;9.60;5.20;;;17.10;99.90;;;;;;4973454;28;20180;-81
2022/06/11 04:09:10;;;;;;;11.17;5.47;;;17.10;99.90;;;;;;4973127;28;20268;-81
2022/06/11 04:11:36;;;;;;;10.07;5.60;;;17.00;99.90;;;;;;4973298;28;20211;-81
2022/06/11 04:14:02;;;;;;;9.53;5.07;;;17.00;99.90;;;;;;4973416;28;20330;-81
2022/06/11 04:16:35;;;;;;;9.07;5.50;;;17.10;99.90;;;;;;4973327;28;20176;-81
2022/06/11 04:19:04;;;;;;;11.37;5.37;;;17.10;99.90;;;;;;4973335;28;20172;-81
2022/06/11 04:21:31;;;;;;;9.93;5.53;;;17.10;99.90;;;;;;4996273;23;20266;-91
2022/06/11 04:23:59;;;;;;;10.77;5.43;;;17.20;99.90;;;;;;5024260;28;20257;-91
2022/06/11 04:26:30;;;;;;;11.87;5.37;;;17.20;99.90;;;;;;4992143;28;20820;-91
2022/06/11 04:28:57;;;;;;;15.20;5.70;;;17.40;99.90;;;;;;5024487;28;20171;-92
2022/06/11 04:31:23;;;;;;;8.13;4.67;;;17.50;99.90;;;;;;4992306;28;20671;-92
2022/06/11 04:33:50;;;;;;;9.77;4.57;;;17.70;99.90;;;;;;5028128;23;20318;-80
2022/06/11 04:36:21;;;;;;;8.60;3.63;;;18.10;99.90;;;;;;4974149;28;20187;-79
2022/06/11 04:38:47;;;;;;;8.87;3.50;;;18.60;99.90;;;;;;4973981;28;20160;-79
2022/06/11 04:41:13;;;;;;;6.85;3.60;;;18.90;99.90;;;;;;4974231;28;20686;-80
2022/06/11 04:43:40;;;;;;;8.15;3.50;;;19.20;99.90;;;;;;4974628;28;20182;-80
2022/06/11 04:46:06;;;;;;;7.45;3.17;;;18.90;99.90;;;;;;4976840;28;20203;-80
2022/06/11 04:48:32;;;;;;;7.78;3.35;;;19.10;99.90;;;;;;4976406;28;20207;-80
2022/06/11 04:50:58;;;;;;;11.13;3.78;;;19.30;99.90;;;;;;4976905;28;20180;-80
2022/06/11 04:53:24;;;;;;;9.15;3.22;;;19.60;99.90;;;;;;4977737;28;20663;-80
2022/06/11 04:55:51;;;;;;;6.50;3.10;;;19.90;99.90;;;;;;4977712;28;20172;-80
2022/06/11 04:58:17;;;;;;;6.40;3.05;;;19.60;99.90;;;;;;4977570;28;20176;-80
2022/06/11 05:00:43;;;;;;;10.70;3.20;;;19.60;99.90;;;;;;4977105;28;20176;-80
2022/06/11 05:03:09;;;;;;;4.85;3.20;;;19.80;99.90;;;;;;4977658;28;20192;-80
2022/06/11 05:05:34;;;;;;;4.53;3.42;;;19.50;99.90;;;;;;4977363;28;20641;-80
2022/06/11 05:08:01;;;;;;;9.80;3.67;;;19.30;99.90;;;;;;4977495;28;20180;-80
2022/06/11 05:10:28;;;;;;;7.10;3.25;;;19.00;99.90;;;;;;4977365;28;20181;-81
2022/06/11 05:12:55;;;;;;;16.80;3.45;;;19.20;99.90;;;;;;4977923;28;20230;-81
2022/06/11 05:15:21;;;;;;;9.98;3.30;;;19.70;99.90;;;;;;4977501;28;20183;-79
2022/06/11 05:17:46;;;;;;;7.85;2.80;;;19.80;99.90;;;;;;4976334;28;20248;-80
2022/06/11 05:20:14;;;;;;;8.02;3.42;;;20.00;99.90;;;;;;4977460;28;20278;-80
2022/06/11 05:22:40;;;;;;;8.32;3.13;;;20.10;99.90;;;;;;4980006;28;20200;-80
2022/06/11 05:25:06;;;;;;;4.63;2.80;;;20.10;99.90;;;;;;4980956;28;20184;-80
2022/06/11 05:27:33;;;;;;;6.18;2.70;;;20.30;99.90;;;;;;4980266;28;20176;-80
2022/06/11 05:30:03;;;;;;;4.38;2.30;;;20.30;99.90;;;;;;4980366;28;20182;-79
2022/06/11 05:32:32;;;;;;;5.32;2.53;;;20.40;99.90;;;;;;4980357;28;20236;-80
2022/06/11 05:34:59;;;;;;;4.35;3.83;;;20.30;99.90;;;;;;4980524;28;20254;-80
2022/06/11 05:37:26;;;;;;;4.38;3.50;;;20.50;99.90;;;;;;4981131;28;20187;-80
2022/06/11 05:39:52;;;;;;;4.13;2.90;;;20.50;99.90;;;;;;4979988;28;20172;-80
2022/06/11 05:42:21;;;;;;;3.15;2.22;;;20.50;99.90;;;;;;4980775;28;20246;-80
2022/06/11 05:44:47;;;;;;;3.38;2.20;;;20.60;99.90;;;;;;4979454;28;20279;-79
2022/06/11 05:47:16;;;;;;;6.25;2.50;;;21.00;99.90;;;;;;4977664;28;20663;-79
2022/06/11 05:49:46;;;;;;;5.45;2.35;;;20.90;99.90;;;;;;4977215;28;20226;-79
2022/06/11 05:52:18;;;;;;;4.47;2.00;;;21.10;99.90;;;;;;4977128;28;20218;-80
2022/06/11 05:54:46;;;;;;;4.78;2.25;;;21.50;99.90;;;;;;4978817;28;20165;-80
2022/06/11 05:57:15;;;;;;;2.97;1.90;;;21.80;99.90;;;;;;4977554;28;20528;-80
2022/06/11 05:59:46;;;;;;;2.78;1.80;;;21.80;99.90;;;;;;4976622;28;20175;-80
2022/06/11 06:02:14;;;;;;;5.00;2.03;;;21.60;99.90;;;;;;4976917;28;20207;-79
2022/06/11 06:04:40;;;;;;;4.68;1.83;;;21.80;99.90;;;;;;4976850;28;20187;-80
2022/06/11 06:07:06;;;;;;;5.07;2.10;;;22.00;99.90;;;;;;4977874;28;20780;-80
2022/06/11 06:09:36;;;;;;;4.60;1.60;;;22.10;99.90;;;;;;4976456;28;20182;-80
2022/06/11 06:12:03;;;;;;;3.67;1.80;;;22.40;99.90;;;;;;4976552;28;20215;-80
2022/06/11 06:14:30;;;;;;;5.93;2.13;;;22.90;99.90;;;;;;4977442;28;20623;-80
2022/06/11 06:16:55;;;;;;;4.40;2.00;;;22.60;99.90;;;;;;4976583;28;20263;-80
2022/06/11 06:19:21;;;;;;;3.22;1.67;;;22.50;99.90;;;;;;4976940;28;20206;-79
2022/06/11 06:21:47;;;;;;;3.75;1.73;;;22.70;99.90;;;;;;4977441;28;20739;-80
2022/06/11 06:24:12;;;;;;;4.03;1.90;;;22.30;99.90;;;;;;4976738;28;20550;-81
2022/06/11 06:26:38;;;;;;;5.18;2.08;;;22.90;99.90;;;;;;4976457;28;20632;-82
2022/06/11 06:29:04;;;;;;;5.40;1.63;;;23.00;99.90;;;;;;4977137;28;20267;-81
2022/06/11 06:31:31;;;;;;;5.63;2.03;;;23.00;99.90;;;;;;4976347;28;20208;-81
2022/06/11 06:33:59;;;;;;;3.78;1.50;;;22.70;99.90;;;;;;4976327;28;20184;-81
2022/06/11 06:36:25;;;;;;;3.38;1.38;;;22.90;99.90;;;;;;4976603;28;20656;-82
2022/06/11 06:38:51;;;;;;;3.03;1.45;;;22.70;99.90;;;;;;4976506;28;20176;-81
2022/06/11 06:41:17;;;;;;;4.75;1.70;;;22.90;99.90;;;;;;4976316;28;20681;-81
2022/06/11 06:43:43;;;;;;;4.15;1.83;;;22.90;99.90;;;;;;4974423;28;20455;-81
2022/06/11 06:46:09;;;;;;;4.72;1.88;;;23.30;99.90;;;;;;4973970;28;20271;-80
2022/06/11 06:48:35;;;;;;;3.33;1.98;;;23.10;99.90;;;;;;4976100;28;20264;-81
2022/06/11 06:51:02;;;;;;;4.63;1.80;;;23.20;99.90;;;;;;4974296;28;20223;-82
2022/06/11 06:53:28;;;;;;;4.65;1.85;;;23.60;99.90;;;;;;4974477;28;20196;-82
2022/06/11 06:55:55;;;;;;;4.65;1.50;;;23.70;99.90;;;;;;4974977;28;20172;-83
2022/06/11 06:58:21;;;;;;;5.18;1.75;;;24.50;99.90;;;;;;4974737;28;20762;-81
2022/06/11 07:00:47;;;;;;;5.53;1.60;;;24.20;99.90;;;;;;4975345;28;20231;-81
2022/06/11 07:03:14;;;;;;;5.35;1.17;;;23.40;99.90;;;;;;4975907;28;20180;-81
2022/06/11 07:05:40;;;;;;;6.57;2.33;;;22.40;99.90;;;;;;4975447;28;20180;-82
2022/06/11 07:08:06;;;;;;;3.75;1.45;;;22.10;99.90;;;;;;4976316;28;20172;-83
2022/06/11 07:10:33;;;;;;;4.35;1.65;;;22.10;99.90;;;;;;4976747;28;20588;-82
2022/06/11 07:13:00;;;;;;;4.28;1.70;;;21.90;99.90;;;;;;4976536;28;20215;-80
2022/06/11 07:15:27;;;;;;;4.13;1.70;;;22.10;99.90;;;;;;4977708;28;20180;-82
2022/06/11 07:18:13;;;;;;;4.97;1.90;;;21.30;99.90;;;;;;4977337;28;20208;-82
2022/06/11 07:20:40;;;;;;;4.93;1.85;;;21.90;99.90;;;;;;4978663;28;20179;-83
2022/06/11 07:23:30;;;;;;;5.57;1.83;;;23.10;99.90;;;;;;4977064;28;20286;-82
2022/06/11 07:25:59;;;;;;;6.40;1.90;;;23.20;99.90;;;;;;4976796;28;20180;-81
2022/06/11 07:28:37;;;;;;;1.63;1.20;;;23.90;99.90;;;;;;4976194;28;20203;-81
2022/06/11 07:31:03;;;;;;;9.18;2.20;;;23.30;99.90;;;;;;4976544;28;20664;-83
2022/06/11 07:33:29;;;;;;;9.20;1.90;;;22.80;99.90;;;;;;4976450;28;20266;-83
2022/06/11 07:35:56;;;;;;;6.60;1.90;;;23.20;99.90;;;;;;4976475;28;20644;-83
2022/06/11 07:38:23;;;;;;;3.08;1.83;;;23.20;99.90;;;;;;4976366;28;20180;-82
2022/06/11 07:40:48;;;;;;;5.22;1.60;;;22.90;99.90;;;;;;4977285;28;20236;-83
2022/06/11 07:43:14;;;;;;;3.60;1.70;;;22.90;99.90;;;;;;4976293;28;20180;-82
2022/06/11 07:45:42;;;;;;;4.80;1.83;;;22.90;99.90;;;;;;4976465;28;20168;-83
2022/06/11 07:48:09;;;;;;;9.95;1.95;;;23.30;99.90;;;;;;4975302;28;20206;-83
2022/06/11 07:50:38;;;;;;;4.03;1.67;;;23.80;99.90;;;;;;4975440;28;20235;-83
2022/06/11 07:53:06;;;;;;;3.42;1.48;;;23.70;99.90;;;;;;4975167;28;20246;-82
2022/06/11 07:55:32;;;;;;;7.80;1.70;;;24.00;99.20;;;;;;4975987;28;20226;-83
2022/06/11 07:57:58;;;;;;;4.80;1.63;;;23.80;99.80;;;;;;4975054;28;20677;-83
2022/06/11 08:00:37;;;;;;;4.72;1.70;;;24.10;99.90;;;;;;4976771;28;20179;-83
2022/06/11 08:03:04;;;;;;;2.38;1.30;;;24.10;98.00;;;;;;4976593;28;20206;-82
2022/06/11 08:05:30;;;;;;;4.30;1.55;;;24.00;98.70;;;;;;4975518;28;20235;-81
2022/06/11 08:07:55;;;;;;;6.32;1.67;;;23.40;98.50;;;;;;4976092;28;20605;-82
2022/06/11 08:10:24;;;;;;;5.63;1.63;;;22.90;98.20;;;;;;4975356;28;20215;-82
2022/06/11 08:12:50;;;;;;;4.85;1.40;;;23.30;98.40;;;;;;4977070;28;20208;-82
2022/06/11 08:15:16;;;;;;;3.13;1.40;;;23.70;97.40;;;;;;4976388;28;20259;-82
2022/06/11 08:17:42;;;;;;;4.65;1.48;;;23.60;97.30;;;;;;4975378;28;20180;-81
2022/06/11 08:20:11;;;;;;;5.57;1.52;;;24.30;97.40;;;;;;4977421;28;20651;-83
2022/06/11 08:22:36;;;;;;;7.38;1.73;;;24.40;97.30;;;;;;4976378;28;20235;-82
2022/06/11 08:25:03;;;;;;;7.72;1.58;;;24.90;96.60;;;;;;4977537;28;20183;-82
2022/06/11 08:27:29;;;;;;;7.28;1.50;;;24.70;97.20;;;;;;4977010;28;20184;-82
2022/06/11 08:29:54;;;;;;;4.15;1.60;;;25.00;96.70;;;;;;4978742;28;20171;-83
2022/06/11 08:32:20;;;;;;;4.78;1.38;;;25.00;96.10;;;;;;4977093;28;20208;-82
2022/06/11 08:34:46;;;;;;;4.55;1.65;;;25.30;95.60;;;;;;4976989;28;20221;-82
2022/06/11 08:37:15;;;;;;;3.92;1.50;;;24.90;95.60;;;;;;4976965;28;20187;-82
2022/06/11 08:39:42;;;;;;;2.45;1.20;;;25.30;95.20;;;;;;4975270;28;20168;-82
2022/06/11 08:42:35;;;;;;;7.22;1.60;;;24.70;93.30;;;;;;4977112;28;20676;-82
2022/06/11 08:45:23;;;;;;;3.90;1.20;;;25.20;94.10;;;;;;4977809;28;20176;-82
2022/06/11 08:47:54;;;;;;;2.58;1.30;;;25.10;94.60;;;;;;4975591;28;20180;-82
2022/06/11 08:50:27;;;;;;;3.75;1.40;;;25.00;93.20;;;;;;4979350;28;20169;-83
2022/06/11 08:52:53;;;;;;;4.28;1.45;;;24.60;93.10;;;;;;4976666;28;20208;-83
2022/06/11 08:55:21;;;;;;;3.40;1.50;;;24.60;92.30;;;;;;4978191;28;20176;-83
2022/06/11 08:57:57;;;;;;;5.30;1.40;;;24.70;91.90;;;;;;4982447;28;20183;-82
2022/06/11 09:00:26;;;;;;;2.92;1.45;;;24.30;92.10;;;;;;4982675;28;20235;-82
2022/06/11 09:03:01;;;;;;;4.80;1.40;;;25.00;92.10;;;;;;4981738;28;20191;-83
2022/06/11 09:06:01;;;;;;;7.53;1.80;;;24.60;92.50;;;;;;4979654;28;20179;-83
2022/06/11 09:08:27;;;;;;;5.28;1.75;;;24.30;93.00;;;;;;4981671;28;20195;-83
2022/06/11 09:11:05;;;;;;;7.45;1.88;;;23.90;92.20;;;;;;4977809;28;20706;-83
2022/06/11 09:13:39;;;;;;;5.75;1.50;;;23.80;91.90;;;;;;4979611;28;20621;-82
2022/06/11 09:16:27;;;;;;;4.35;1.60;;;24.30;92.20;;;;;;4977880;28;20211;-83
2022/06/11 09:19:08;;;;;;;3.65;1.67;;;24.50;92.60;;;;;;4980016;28;20801;-82
2022/06/11 09:21:46;;;;;;;5.05;1.55;;;24.70;92.80;;;;;;4979498;28;20246;-83
2022/06/11 09:24:23;;;;;;;5.93;1.33;;;25.00;92.20;;;;;;4980035;28;20184;-83
2022/06/11 09:27:06;;;;;;;6.70;1.58;;;24.60;91.60;;;;;;4980476;28;20224;-82
2022/06/11 09:29:41;;;;;;;5.38;1.80;;;24.20;91.70;;;;;;4980595;28;20164;-82
2022/06/11 09:32:42;;;;;;;2.40;1.58;;;24.10;91.40;;;;;;4979250;28;20215;-83
2022/06/11 09:35:39;;;;;;;2.60;1.13;;;25.10;93.30;;;;;;4942613;29;20188;-83
2022/06/11 09:38:29;;;;;;;6.35;1.33;;;25.50;90.70;;;;;;4978885;28;20557;-83
2022/06/11 09:41:32;;;;;;;4.97;1.83;;;25.30;90.80;;;;;;4980370;28;20176;-82
2022/06/11 09:44:26;;;;;;;3.45;1.40;;;25.90;92.30;;;;;;4980147;28;20159;-83
2022/06/11 09:47:01;;;;;;;3.92;1.48;;;26.50;91.40;;;;;;4980226;28;20533;-82
2022/06/11 09:50:10;;;;;;;4.30;1.60;;;26.30;88.90;;;;;;4981229;28;20171;-84
2022/06/11 09:52:43;;;;;;;6.18;1.88;;;26.30;90.90;;;;;;4940949;28;20224;-83
2022/06/11 09:55:27;;;;;;;6.07;1.65;;;25.80;91.10;;;;;;4981814;28;20187;-83
2022/06/11 09:58:17;;;;;;;8.30;1.80;;;25.50;90.50;;;;;;4980929;28;20160;-83
2022/06/11 10:00:48;;;;;;;5.47;1.77;;;25.10;90.30;;;;;;4980533;28;20589;-83
2022/06/11 10:06:09;;;;;;;6.88;1.73;;;24.50;90.30;;;;;;4982256;28;20520;-82
2022/06/11 10:08:52;;;;;;;6.32;1.52;;;24.00;91.50;;;;;;4980581;28;20160;-81
2022/06/11 10:11:23;;;;;;;3.85;1.60;;;24.50;91.90;;;;;;4981095;28;20204;-81
2022/06/11 10:17:22;;;;;;;5.10;1.40;;;24.60;92.80;;;;;;4982613;28;20263;-82
2022/06/11 10:20:13;;;;;;;7.13;1.70;;;24.60;92.60;;;;;;4962846;28;20188;-82
2022/06/11 10:22:44;;;;;;;5.18;1.73;;;24.20;92.30;;;;;;4978079;28;20215;-82
2022/06/11 10:25:21;;;;;;;6.03;1.88;;;24.50;92.10;;;;;;4978049;28;20546;-82
2022/06/11 10:28:14;;;;;;;3.33;1.40;;;24.70;92.60;;;;;;4977962;28;20172;-82
2022/06/11 10:30:52;;;;;;;4.47;1.80;;;24.90;91.80;;;;;;4977305;28;20172;-82
2022/06/11 10:33:46;;;;;;;6.47;1.80;;;24.60;92.20;;;;;;4976891;28;20604;-82
2022/06/11 10:36:21;;;;;;;5.63;1.45;;;24.50;91.60;;;;;;4977056;28;20261;-83
2022/06/11 10:39:10;;;;;;;4.03;1.42;;;24.30;92.60;;;;;;4977446;28;20187;-82
2022/06/11 10:41:48;;;;;;;3.53;1.23;;;24.60;91.50;;;;;;4978296;28;20207;-83
2022/06/11 10:44:40;;;;;;;4.18;1.58;;;24.60;91.20;;;;;;4977465;28;20176;-83
2022/06/11 10:47:20;;;;;;;3.22;1.60;;;24.70;91.10;;;;;;4976208;28;20176;-83
2022/06/11 10:49:50;;;;;;;2.92;1.73;;;24.10;91.00;;;;;;4975646;28;20192;-83
2022/06/11 10:52:34;;;;;;;2.53;1.23;;;24.10;91.30;;;;;;4975262;28;20207;-84
2022/06/11 10:54:59;;;;;;;3.25;1.20;;;24.10;91.10;;;;;;4974392;28;20172;-84
2022/06/11 10:57:29;;;;;;;5.28;1.38;;;24.10;91.30;;;;;;4974895;28;20179;-82
2022/06/11 11:00:18;;;;;;;2.78;1.23;;;24.50;90.80;;;;;;4975386;28;20172;-84
2022/06/11 11:02:53;;;;;;;4.82;1.27;;;24.90;90.00;;;;;;4982533;28;20196;-84
2022/06/11 11:05:20;;;;;;;3.05;1.65;;;24.70;91.10;;;;;;4968025;28;20180;-84
2022/06/11 11:07:55;;;;;;;3.53;1.45;;;24.40;90.20;;;;;;4965944;28;20678;-83
2022/06/11 11:10:25;;;;;;;5.32;1.67;;;24.40;90.40;;;;;;4980345;28;20179;-84
2022/06/11 11:12:55;;;;;;;5.43;1.70;;;24.40;91.50;;;;;;4979995;28;20200;-83
2022/06/11 11:15:26;;;;;;;6.60;1.70;;;25.50;91.10;;;;;;4980170;28;20160;-84
2022/06/11 11:18:00;;;;;;;3.83;1.50;;;26.10;90.20;;;;;;4980332;28;20538;-84
2022/06/11 11:20:41;;;;;;;2.35;1.20;;;26.00;89.90;;;;;;4979273;28;20172;-83
2022/06/11 11:23:10;;;;;;;4.28;1.15;;;25.80;88.40;;;;;;4979603;28;20954;-84
2022/06/11 11:25:38;;;;;;;5.22;1.45;;;26.60;86.30;;;;;;4981704;28;20716;-85
2022/06/11 11:28:05;;;;;;;7.05;1.50;;;25.90;88.00;;;;;;4978180;28;20582;-83
2022/06/11 11:30:38;;;;;;;6.10;1.27;;;26.30;91.30;;;;;;4976607;28;20176;-84
2022/06/11 11:33:20;;;;;;;6.63;1.38;;;26.30;89.90;;;;;;4976093;28;20207;-85
2022/06/11 11:35:45;;;;;;;4.25;1.40;;;26.50;88.40;;;;;;4976118;28;20188;-83
2022/06/11 11:38:11;;;;;;;3.92;1.50;;;25.70;88.90;;;;;;4974734;28;20195;-82
2022/06/11 11:40:53;;;;;;;2.58;1.38;;;25.30;89.50;;;;;;4975780;28;20194;-80
2022/06/11 11:43:20;;;;;;;3.28;1.42;;;26.20;90.60;;;;;;4973167;28;20262;-76
2022/06/11 11:45:59;;;;;;;4.63;1.55;;;27.40;89.50;;;;;;4972335;28;20180;-76
2022/06/11 11:48:43;;;;;;;4.95;1.35;;;27.00;86.80;;;;;;4973705;28;20176;-79
2022/06/11 11:51:25;;;;;;;4.32;1.50;;;26.90;88.60;;;;;;4974125;28;20188;-80
2022/06/11 11:54:19;;;;;;;3.35;1.60;;;27.50;89.00;;;;;;4972811;28;20223;-78
2022/06/11 11:56:54;;;;;;;6.10;2.05;;;27.40;86.50;;;;;;4974725;28;20257;-82
2022/06/11 11:59:24;;;;;;;5.85;1.40;;;27.90;89.50;;;;;;4975536;28;20223;-82
2022/06/11 12:01:53;;;;;;;2.38;1.30;;;27.40;89.10;;;;;;4974691;28;20630;-80
2022/06/11 12:04:26;;;;;;;5.07;1.40;;;28.00;86.10;;;;;;4974210;28;20175;-79
2022/06/11 12:06:57;;;;;;;6.63;1.50;;;27.40;88.30;;;;;;4974962;28;20180;-82
2022/06/11 12:09:33;;;;;;;3.60;1.45;;;27.10;86.80;;;;;;4974799;28;20172;-80
2022/06/11 12:12:31;;;;;;;2.88;1.20;;;26.90;85.50;;;;;;4974105;28;20629;-79
2022/06/11 12:15:02;;;;;;;5.70;1.30;;;27.00;88.80;;;;;;4974623;28;20639;-80
2022/06/11 12:18:14;;;;;;;3.70;1.45;;;27.00;89.60;;;;;;4974854;28;20224;-81
2022/06/11 12:20:52;;;;;;;5.90;1.30;;;26.50;87.30;;;;;;4919634;29;20180;-79
2022/06/11 12:23:37;;;;;;;3.25;1.30;;;26.30;88.70;;;;;;4967427;28;20334;-79
2022/06/11 12:26:18;;;;;;;9.30;1.95;;;26.50;89.10;;;;;;4973984;28;20310;-80
2022/06/11 12:29:12;;;;;;;5.72;1.45;;;26.60;89.10;;;;;;4973068;28;20168;-78
2022/06/11 12:31:37;;;;;;;9.95;1.60;;;26.30;89.30;;;;;;4972733;28;20230;-79
2022/06/11 12:34:15;;;;;;;8.88;2.25;;;26.80;88.50;;;;;;4973412;28;20195;-80
2022/06/11 12:37:13;;;;;;;2.05;1.33;;;26.70;89.20;;;;;;4973932;28;20180;-80
2022/06/11 12:40:03;;;;;;;3.60;1.50;;;26.30;90.10;;;;;;4973907;28;20489;-80
2022/06/11 12:42:39;;;;;;;2.97;1.58;;;26.40;90.30;;;;;;4974976;28;20200;-80
2022/06/11 12:45:23;;;;;;;6.25;1.60;;;26.80;90.80;;;;;;4973944;28;20855;-80
2022/06/11 12:48:25;;;;;;;4.20;1.52;;;26.50;90.50;;;;;;4973237;28;20230;-79
2022/06/11 12:51:17;;;;;;;5.72;1.63;;;26.10;91.00;;;;;;4976005;28;20183;-81
2022/06/11 12:54:01;;;;;;;3.15;1.50;;;26.10;91.40;;;;;;4974302;28;20192;-79
2022/06/11 12:56:57;;;;;;;4.00;1.52;;;25.90;90.10;;;;;;4974789;28;20267;-79
2022/06/11 12:59:46;;;;;;;2.90;1.40;;;25.20;90.50;;;;;;4975970;28;20180;-79
2022/06/11 13:02:33;;;;;;;5.40;1.60;;;25.60;91.60;;;;;;4974824;28;20250;-80
2022/06/11 13:05:14;;;;;;;4.03;1.55;;;25.90;90.70;;;;;;4974965;28;20623;-81
2022/06/11 13:07:48;;;;;;;2.90;1.25;;;26.00;90.30;;;;;;4975844;28;20207;-81
2022/06/11 13:10:20;;;;;;;3.60;1.13;;;26.20;91.10;;;;;;4975109;28;20179;-80
2022/06/11 13:13:14;;;;;;;4.85;1.40;;;25.60;89.30;;;;;;4971692;28;20528;-79
2022/06/11 13:16:01;;;;;;;5.55;1.50;;;25.50;90.60;;;;;;4965733;28;20725;-79
2022/06/11 13:18:36;;;;;;;3.70;1.33;;;25.50;90.30;;;;;;4975049;28;20229;-79
2022/06/11 13:21:26;;;;;;;6.00;1.50;;;25.70;91.20;;;;;;4975467;28;20262;-79
2022/06/11 13:24:13;;;;;;;4.55;1.50;;;25.80;91.40;;;;;;4975925;28;20227;-79